Girona, Spain

6:12 AM CEST on September 24, 2014 (GMT +0200)
Salitja | Change Station
CLOSE
Current Station
Personal Weather Station
Location: Vilobi d'Onyar, CT
Elevation: 479 ft
Nearby Weather Stations

Elev 479 ft 41.91 °N, 2.74 °E | Updated 1 minute ago

Scattered Clouds
Scattered Clouds
58.6 °F
Feels Like 58.6 °F
N
0.0
Wind Variable Wind from North
Gusts 0.0 mph

Today
High -- | Low -- °F
--% Chance of Precip.
Yesterday
High -- | Low -- °F
Precip. -- in
7:38 AM 7:43 PM
Waning Crescent, 0% visible
Pressure 29.95 in
Visibility 4.3 miles
Clouds Few 1500 ft
Scattered Clouds 4500 ft
Dew Point 55 °F
Humidity 87%
Rainfall 0.00 in
Snow Depth Not available.
UV 0 out of 12
Pollen Not available.
Air Quality Not available.
Flu Activity Not available.
METAR LEGE 240400Z VRB01KT 7000 FEW015 SCT045 14/14 Q1014

More Conditions Fewer Conditions

Pressure 29.95 in
Visibility 4.3 miles
Clouds Few 1500 ft
Scattered Clouds 4500 ft
Dew Point 55 °F
Humidity 87%
Rainfall 0.00 in
Snow Depth Not available.
UV 0 out of 12
Pollen Not available.
Air Quality Not available.
Flu Activity Not available.
METAR LEGE 240400Z VRB01KT 7000 FEW015 SCT045 14/14 Q1014

More Conditions Fewer Conditions

10-Day Weather Forecast

Almanac

Astronomy

Sep. 24, 2014 Rise Set
Actual Time 7:38 AM CEST 7:43 PM CEST
Civil Twilight 7:10 AM CEST 8:10 PM CEST
Nautical Twilight 6:37 AM CEST 8:43 PM CEST
Astronomical Twilight 6:04 AM CEST 9:16 PM CEST
Moon 7:44 AM CEST 7:44 PM CEST
Length of Visible Light 13h 00m
Length of Day
12h 04m
Tomorrow will be 2m 47s shorter.
Waning Crescent, 0% of the Moon is Illuminated
Today
Waning Crescent
Sep 24
New
Oct 1
First Quarter
Oct 8
Full
Oct 15
Last Quarter

Yesterday's Extremes

Country Highs Country Lows

Community

WunderPhotos

Upload Photos

1,755,890 photos uploaded!

WunderBlogs® & News

Nearby

Snow Depth

Not available.

Earthquake Activity

City Distance Mag. Time & Date
No recent earthquake activity has been reported nearby.
Minimum magnitude displayed is 2.5.

Coastal Water Temperatures

Place Temperature
No Stations Reporting

Nearby Weather Stations